sensor_id;sensor_type;location;lat;lon;timestamp;pressure;altitude;pressure_sealevel;temperature;humidity
818;BME280;391;51.052;6.954;2023-04-10T00:00:21;101574.06;;;11.00;56.80
818;BME280;391;51.052;6.954;2023-04-10T00:02:25;101554.31;;;10.85;57.29
818;BME280;391;51.052;6.954;2023-04-10T00:04:29;101566.63;;;10.89;57.15
818;BME280;391;51.052;6.954;2023-04-10T00:06:34;101567.53;;;10.89;57.04
818;BME280;391;51.052;6.954;2023-04-10T00:08:38;101566.50;;;10.86;57.43
818;BME280;391;51.052;6.954;2023-04-10T00:10:42;101569.06;;;10.84;57.25
818;BME280;391;51.052;6.954;2023-04-10T00:12:45;101567.16;;;10.80;57.33
818;BME280;391;51.052;6.954;2023-04-10T00:14:48;101566.94;;;10.76;57.84
818;BME280;391;51.052;6.954;2023-04-10T00:16:52;101552.84;;;10.71;57.95
818;BME280;391;51.052;6.954;2023-04-10T00:18:55;101551.13;;;10.71;58.09
818;BME280;391;51.052;6.954;2023-04-10T00:20:59;101544.00;;;10.67;58.08
818;BME280;391;51.052;6.954;2023-04-10T00:23:05;101538.91;;;10.70;58.28
818;BME280;391;51.052;6.954;2023-04-10T00:25:09;101547.53;;;10.69;58.15
818;BME280;391;51.052;6.954;2023-04-10T00:27:13;101543.19;;;10.68;58.31
818;BME280;391;51.052;6.954;2023-04-10T00:29:17;101537.75;;;10.63;58.51
818;BME280;391;51.052;6.954;2023-04-10T00:31:20;101546.41;;;10.62;58.60
818;BME280;391;51.052;6.954;2023-04-10T00:33:24;101539.34;;;10.60;58.86
818;BME280;391;51.052;6.954;2023-04-10T00:35:29;101537.47;;;10.56;58.71
818;BME280;391;51.052;6.954;2023-04-10T00:37:32;101539.34;;;10.60;58.86
818;BME280;391;51.052;6.954;2023-04-10T00:39:37;101535.72;;;10.56;59.31
818;BME280;391;51.052;6.954;2023-04-10T00:41:42;101443.03;;;10.02;58.92
818;BME280;391;51.052;6.954;2023-04-10T00:43:46;101534.56;;;10.50;59.22
818;BME280;391;51.052;6.954;2023-04-10T00:45:49;101508.72;;;10.34;59.33
818;BME280;391;51.052;6.954;2023-04-10T00:47:53;101526.75;;;10.50;59.45
818;BME280;391;51.052;6.954;2023-04-10T00:49:58;101521.22;;;10.42;59.37
818;BME280;391;51.052;6.954;2023-04-10T00:52:02;101522.94;;;10.42;59.79
818;BME280;391;51.052;6.954;2023-04-10T00:54:06;101512.44;;;10.40;59.90
818;BME280;391;51.052;6.954;2023-04-10T00:56:13;101510.56;;;10.36;59.93
818;BME280;391;51.052;6.954;2023-04-10T00:58:16;101522.06;;;10.41;59.85
818;BME280;391;51.052;6.954;2023-04-10T01:00:21;101518.50;;;10.39;60.10
818;BME280;391;51.052;6.954;2023-04-10T01:02:25;101502.41;;;10.29;60.06
818;BME280;391;51.052;6.954;2023-04-10T01:04:32;101507.88;;;10.35;60.11
818;BME280;391;51.052;6.954;2023-04-10T01:06:48;101509.66;;;10.36;60.32
818;BME280;391;51.052;6.954;2023-04-10T01:09:00;101512.13;;;10.33;60.72
818;BME280;391;51.052;6.954;2023-04-10T01:11:11;101496.03;;;10.22;60.93
818;BME280;391;51.052;6.954;2023-04-10T01:13:21;101509.44;;;10.31;61.06
818;BME280;391;51.052;6.954;2023-04-10T01:15:29;101506.72;;;10.28;60.66
818;BME280;391;51.052;6.954;2023-04-10T01:17:44;101494.31;;;10.23;60.76
818;BME280;391;51.052;6.954;2023-04-10T01:19:58;101504.06;;;10.27;60.71
818;BME280;391;51.052;6.954;2023-04-10T01:22:04;101510.91;;;10.25;60.78
818;BME280;391;51.052;6.954;2023-04-10T01:24:20;101497.56;;;10.17;60.64
818;BME280;391;51.052;6.954;2023-04-10T01:26:41;101497.50;;;10.16;61.02
818;BME280;391;51.052;6.954;2023-04-10T01:28:59;101480.75;;;10.10;60.94
818;BME280;391;51.052;6.954;2023-04-10T01:31:07;101478.50;;;9.99;61.35
818;BME280;391;51.052;6.954;2023-04-10T01:33:15;101474.47;;;9.86;61.40
818;BME280;391;51.052;6.954;2023-04-10T01:35:20;101450.50;;;9.74;61.58
818;BME280;391;51.052;6.954;2023-04-10T01:37:26;101475.63;;;9.93;61.64
818;BME280;391;51.052;6.954;2023-04-10T01:39:35;101462.69;;;9.94;61.85
818;BME280;391;51.052;6.954;2023-04-10T01:41:40;101432.50;;;9.79;61.62
818;BME280;391;51.052;6.954;2023-04-10T01:43:49;101477.91;;;10.04;61.18
818;BME280;391;51.052;6.954;2023-04-10T01:45:56;101463.00;;;10.02;61.53
818;BME280;391;51.052;6.954;2023-04-10T01:48:00;101461.59;;;9.89;61.72
818;BME280;391;51.052;6.954;2023-04-10T01:50:05;101468.97;;;9.99;61.23
818;BME280;391;51.052;6.954;2023-04-10T01:52:13;101457.28;;;9.90;60.97
818;BME280;391;51.052;6.954;2023-04-10T01:54:23;101462.31;;;9.85;61.10
818;BME280;391;51.052;6.954;2023-04-10T01:56:27;101404.97;;;9.45;61.82
818;BME280;391;51.052;6.954;2023-04-10T01:58:31;101451.97;;;9.68;61.47
818;BME280;391;51.052;6.954;2023-04-10T02:00:38;101457.19;;;9.48;62.20
818;BME280;391;51.052;6.954;2023-04-10T02:02:44;101446.31;;;9.38;62.47
818;BME280;391;51.052;6.954;2023-04-10T02:04:47;101450.34;;;9.31;62.25
818;BME280;391;51.052;6.954;2023-04-10T02:07:01;101440.78;;;9.32;62.39
818;BME280;391;51.052;6.954;2023-04-10T02:09:13;101442.44;;;9.30;62.55
818;BME280;391;51.052;6.954;2023-04-10T02:11:26;101441.91;;;9.18;62.76
818;BME280;391;51.052;6.954;2023-04-10T02:13:33;101416.00;;;9.01;62.98
818;BME280;391;51.052;6.954;2023-04-10T02:15:38;101435.03;;;9.20;62.93
818;BME280;391;51.052;6.954;2023-04-10T02:17:46;101435.31;;;9.26;62.64
818;BME280;391;51.052;6.954;2023-04-10T02:19:52;101435.31;;;9.26;62.78
818;BME280;391;51.052;6.954;2023-04-10T02:21:57;101433.75;;;9.29;62.34
818;BME280;391;51.052;6.954;2023-04-10T02:24:02;101435.53;;;9.30;62.80
818;BME280;391;51.052;6.954;2023-04-10T02:26:06;101435.13;;;9.40;62.09
818;BME280;391;51.052;6.954;2023-04-10T02:28:11;101437.25;;;9.30;62.41
818;BME280;391;51.052;6.954;2023-04-10T02:30:14;101398.44;;;9.15;62.29
818;BME280;391;51.052;6.954;2023-04-10T02:32:18;101436.31;;;9.28;62.37
818;BME280;391;51.052;6.954;2023-04-10T02:34:24;101433.00;;;9.32;62.57
818;BME280;391;51.052;6.954;2023-04-10T02:36:28;101441.09;;;9.38;62.03
818;BME280;391;51.052;6.954;2023-04-10T02:38:32;101439.44;;;9.40;62.08
818;BME280;391;51.052;6.954;2023-04-10T02:40:36;101437.59;;;9.37;61.77
818;BME280;391;51.052;6.954;2023-04-10T02:42:48;101438.63;;;9.41;62.00
818;BME280;391;51.052;6.954;2023-04-10T02:44:51;101448.19;;;9.42;61.89
818;BME280;391;51.052;6.954;2023-04-10T02:46:56;101448.69;;;9.52;61.63
818;BME280;391;51.052;6.954;2023-04-10T02:49:01;101440.72;;;9.69;61.55
818;BME280;391;51.052;6.954;2023-04-10T02:51:06;101441.88;;;9.75;60.91
818;BME280;391;51.052;6.954;2023-04-10T02:53:10;101435.38;;;9.66;61.32
818;BME280;391;51.052;6.954;2023-04-10T02:55:13;101305.34;;;8.89;61.21
818;BME280;391;51.052;6.954;2023-04-10T02:57:17;101430.38;;;9.51;61.45
818;BME280;391;51.052;6.954;2023-04-10T02:59:20;101420.75;;;9.48;61.85
818;BME280;391;51.052;6.954;2023-04-10T03:01:24;101424.50;;;9.55;61.46
818;BME280;391;51.052;6.954;2023-04-10T03:03:30;101419.81;;;9.67;61.30
818;BME280;391;51.052;6.954;2023-04-10T03:05:33;101420.03;;;9.72;61.02
818;BME280;391;51.052;6.954;2023-04-10T03:07:38;101414.88;;;9.73;61.20
818;BME280;391;51.052;6.954;2023-04-10T03:09:45;101418.19;;;9.69;61.50
818;BME280;391;51.052;6.954;2023-04-10T03:11:49;101412.78;;;9.65;61.23
818;BME280;391;51.052;6.954;2023-04-10T03:13:52;101407.66;;;9.66;61.06
818;BME280;391;51.052;6.954;2023-04-10T03:15:56;101421.75;;;9.71;61.40
818;BME280;391;51.052;6.954;2023-04-10T03:18:00;101422.75;;;9.75;61.16
818;BME280;391;51.052;6.954;2023-04-10T03:20:06;101413.66;;;9.65;61.38
818;BME280;391;51.052;6.954;2023-04-10T03:22:10;101410.00;;;9.60;61.27
818;BME280;391;51.052;6.954;2023-04-10T03:24:16;101410.81;;;9.59;61.46
818;BME280;391;51.052;6.954;2023-04-10T03:26:19;101407.09;;;9.54;61.29
818;BME280;391;51.052;6.954;2023-04-10T03:28:25;101398.69;;;9.40;61.62
818;BME280;391;51.052;6.954;2023-04-10T03:30:30;101396.56;;;9.32;61.92
818;BME280;391;51.052;6.954;2023-04-10T03:32:37;101388.72;;;9.30;61.57
818;BME280;391;51.052;6.954;2023-04-10T03:34:43;101384.81;;;9.21;61.95
818;BME280;391;51.052;6.954;2023-04-10T03:36:48;101381.31;;;9.20;62.22
818;BME280;391;51.052;6.954;2023-04-10T03:38:53;101371.66;;;9.18;61.78
818;BME280;391;51.052;6.954;2023-04-10T03:40:57;101376.66;;;9.13;62.04
818;BME280;391;51.052;6.954;2023-04-10T03:43:04;101374.63;;;9.06;62.43
818;BME280;391;51.052;6.954;2023-04-10T03:45:10;101374.31;;;9.00;62.27
818;BME280;391;51.052;6.954;2023-04-10T03:47:15;101367.50;;;9.02;62.76
818;BME280;391;51.052;6.954;2023-04-10T03:49:26;101368.56;;;9.07;62.20
818;BME280;391;51.052;6.954;2023-04-10T03:51:37;101365.06;;;9.07;62.08
818;BME280;391;51.052;6.954;2023-04-10T03:53:41;101353.38;;;8.97;62.27
818;BME280;391;51.052;6.954;2023-04-10T03:55:49;101364.22;;;9.06;62.47
818;BME280;391;51.052;6.954;2023-04-10T03:57:56;101367.63;;;9.05;62.28
818;BME280;391;51.052;6.954;2023-04-10T03:59:59;101373.59;;;9.02;62.46
818;BME280;391;51.052;6.954;2023-04-10T04:02:21;101359.47;;;8.97;62.38
818;BME280;391;51.052;6.954;2023-04-10T04:04:25;101356.72;;;8.94;62.60
818;BME280;391;51.052;6.954;2023-04-10T04:06:47;101354.88;;;8.92;62.27
818;BME280;391;51.052;6.954;2023-04-10T04:09:05;101353.25;;;8.94;62.41
818;BME280;391;51.052;6.954;2023-04-10T04:11:15;101348.13;;;8.95;62.51
818;BME280;391;51.052;6.954;2023-04-10T04:13:39;101352.34;;;8.93;62.14
818;BME280;391;51.052;6.954;2023-04-10T04:15:59;101347.91;;;8.91;62.06
818;BME280;391;51.052;6.954;2023-04-10T04:18:32;101358.03;;;8.85;62.17
818;BME280;391;51.052;6.954;2023-04-10T04:21:03;101353.81;;;8.87;62.17
818;BME280;391;51.052;6.954;2023-04-10T04:23:17;101361.78;;;8.91;62.07
818;BME280;391;51.052;6.954;2023-04-10T04:25:39;101360.75;;;8.88;62.03
818;BME280;391;51.052;6.954;2023-04-10T04:28:15;101357.97;;;8.83;62.06
818;BME280;391;51.052;6.954;2023-04-10T04:30:41;101360.72;;;8.86;62.24
818;BME280;391;51.052;6.954;2023-04-10T04:33:06;101353.81;;;8.87;62.03
818;BME280;391;51.052;6.954;2023-04-10T04:35:29;101349.47;;;8.87;62.03
818;BME280;391;51.052;6.954;2023-04-10T04:38:01;101356.53;;;8.90;61.60
818;BME280;391;51.052;6.954;2023-04-10T04:40:17;101357.41;;;8.90;61.92
818;BME280;391;51.052;6.954;2023-04-10T04:42:39;101352.34;;;8.93;61.47
818;BME280;391;51.052;6.954;2023-04-10T04:45:11;101353.25;;;8.94;61.54
818;BME280;391;51.052;6.954;2023-04-10T04:47:43;101344.75;;;8.98;61.71
818;BME280;391;51.052;6.954;2023-04-10T04:50:05;101338.94;;;9.03;61.59
818;BME280;391;51.052;6.954;2023-04-10T04:52:37;101340.63;;;9.03;61.36
818;BME280;391;51.052;6.954;2023-04-10T04:55:07;101343.31;;;9.04;61.25
818;BME280;391;51.052;6.954;2023-04-10T04:57:27;101345.31;;;9.10;61.42
818;BME280;391;51.052;6.954;2023-04-10T04:59:39;101350.50;;;9.10;61.01
818;BME280;391;51.052;6.954;2023-04-10T05:01:56;101345.03;;;9.04;60.84
818;BME280;391;51.052;6.954;2023-04-10T05:04:31;101349.28;;;9.02;61.25
818;BME280;391;51.052;6.954;2023-04-10T05:06:57;101355.66;;;9.09;60.90
818;BME280;391;51.052;6.954;2023-04-10T05:09:28;101357.53;;;9.13;60.71
818;BME280;391;51.052;6.954;2023-04-10T05:12:00;101341.88;;;9.11;60.78
818;BME280;391;51.052;6.954;2023-04-10T05:14:16;101349.97;;;9.17;61.05
818;BME280;391;51.052;6.954;2023-04-10T05:16:32;101226.41;;;8.48;60.60
818;BME280;391;51.052;6.954;2023-04-10T05:19:00;101350.97;;;9.21;60.58
818;BME280;391;51.052;6.954;2023-04-10T05:21:16;101353.44;;;9.18;60.40
818;BME280;391;51.052;6.954;2023-04-10T05:23:37;101352.69;;;9.20;60.38
818;BME280;391;51.052;6.954;2023-04-10T05:25:50;101352.69;;;9.20;60.47
818;BME280;391;51.052;6.954;2023-04-10T05:28:25;101350.44;;;9.28;60.16
818;BME280;391;51.052;6.954;2023-04-10T05:30:35;101352.31;;;9.32;60.22
818;BME280;391;51.052;6.954;2023-04-10T05:33:02;101353.19;;;9.31;60.23
818;BME280;391;51.052;6.954;2023-04-10T05:35:18;101359.13;;;9.28;59.81
818;BME280;391;51.052;6.954;2023-04-10T05:37:40;101358.25;;;9.28;60.23
818;BME280;391;51.052;6.954;2023-04-10T05:40:02;101361.66;;;9.27;60.48
818;BME280;391;51.052;6.954;2023-04-10T05:42:10;101358.63;;;9.37;60.33
818;BME280;391;51.052;6.954;2023-04-10T05:44:32;101360.59;;;9.42;59.70
818;BME280;391;51.052;6.954;2023-04-10T05:46:44;101364.78;;;9.39;59.48
818;BME280;391;51.052;6.954;2023-04-10T05:48:57;101363.91;;;9.38;59.87
818;BME280;391;51.052;6.954;2023-04-10T05:51:12;101364.03;;;9.41;59.67
818;BME280;391;51.052;6.954;2023-04-10T05:53:32;101353.06;;;9.48;59.66
818;BME280;391;51.052;6.954;2023-04-10T05:55:36;101365.41;;;9.52;59.44
818;BME280;391;51.052;6.954;2023-04-10T05:58:14;101369.19;;;9.61;59.47
818;BME280;391;51.052;6.954;2023-04-10T06:00:53;101366.88;;;9.67;59.69
818;BME280;391;51.052;6.954;2023-04-10T06:03:23;101360.69;;;9.65;59.09
818;BME280;391;51.052;6.954;2023-04-10T06:05:32;101358.09;;;9.65;58.84
818;BME280;391;51.052;6.954;2023-04-10T06:07:39;101359.13;;;9.68;58.95
818;BME280;391;51.052;6.954;2023-04-10T06:09:44;101359.75;;;9.63;59.36
818;BME280;391;51.052;6.954;2023-04-10T06:11:48;101326.09;;;9.46;59.37
818;BME280;391;51.052;6.954;2023-04-10T06:13:55;101329.16;;;9.57;59.36
818;BME280;391;51.052;6.954;2023-04-10T06:16:05;101359.63;;;9.80;59.25
818;BME280;391;51.052;6.954;2023-04-10T06:18:09;101335.16;;;9.77;59.40
818;BME280;391;51.052;6.954;2023-04-10T06:20:13;101345.28;;;9.90;58.77
818;BME280;391;51.052;6.954;2023-04-10T06:22:17;101354.88;;;9.91;58.62
818;BME280;391;51.052;6.954;2023-04-10T06:24:20;101350.69;;;9.94;59.20
818;BME280;391;51.052;6.954;2023-04-10T06:26:25;101355.13;;;9.97;58.92
818;BME280;391;51.052;6.954;2023-04-10T06:28:29;101350.00;;;9.98;58.92
818;BME280;391;51.052;6.954;2023-04-10T06:30:36;101346.78;;;10.05;58.48
818;BME280;391;51.052;6.954;2023-04-10T06:32:41;101338.97;;;10.05;58.72
818;BME280;391;51.052;6.954;2023-04-10T06:34:46;101351.75;;;9.99;58.55
818;BME280;391;51.052;6.954;2023-04-10T06:36:50;101343.16;;;10.02;58.40
818;BME280;391;51.052;6.954;2023-04-10T06:38:56;101349.59;;;10.10;58.75
818;BME280;391;51.052;6.954;2023-04-10T06:40:59;101350.09;;;10.22;58.73
818;BME280;391;51.052;6.954;2023-04-10T06:43:04;101350.31;;;10.27;58.27
818;BME280;391;51.052;6.954;2023-04-10T06:45:11;101354.75;;;10.29;58.25
818;BME280;391;51.052;6.954;2023-04-10T06:47:16;101355.88;;;10.36;58.19
818;BME280;391;51.052;6.954;2023-04-10T06:49:20;101358.53;;;10.37;57.61
818;BME280;391;51.052;6.954;2023-04-10T06:51:23;101365.38;;;10.34;57.64
818;BME280;391;51.052;6.954;2023-04-10T06:53:27;101357.34;;;10.29;57.70
818;BME280;391;51.052;6.954;2023-04-10T06:55:31;101361.38;;;10.43;57.71
818;BME280;391;51.052;6.954;2023-04-10T06:57:34;101358.25;;;10.52;57.43
818;BME280;391;51.052;6.954;2023-04-10T06:59:39;101352.13;;;10.51;57.17
818;BME280;391;51.052;6.954;2023-04-10T07:01:43;101352.38;;;10.57;57.36
818;BME280;391;51.052;6.954;2023-04-10T07:03:46;101356.34;;;10.70;57.34
818;BME280;391;51.052;6.954;2023-04-10T07:05:50;101354.16;;;10.81;56.95
818;BME280;391;51.052;6.954;2023-04-10T07:07:53;101351.44;;;10.78;56.44
818;BME280;391;51.052;6.954;2023-04-10T07:09:57;101351.09;;;10.92;56.49
818;BME280;391;51.052;6.954;2023-04-10T07:12:00;101343.34;;;10.94;56.05
818;BME280;391;51.052;6.954;2023-04-10T07:14:04;101348.66;;;10.97;56.81
818;BME280;391;51.052;6.954;2023-04-10T07:16:09;101338.56;;;11.06;55.76
818;BME280;391;51.052;6.954;2023-04-10T07:18:13;101347.31;;;11.08;55.35
818;BME280;391;51.052;6.954;2023-04-10T07:20:18;101344.81;;;11.11;54.84
818;BME280;391;51.052;6.954;2023-04-10T07:22:22;101330.97;;;11.12;54.83
818;BME280;391;51.052;6.954;2023-04-10T07:24:25;101338.22;;;10.97;54.56
818;BME280;391;51.052;6.954;2023-04-10T07:26:29;101341.19;;;11.06;55.10
818;BME280;391;51.052;6.954;2023-04-10T07:28:32;101332.28;;;11.25;55.10
818;BME280;391;51.052;6.954;2023-04-10T07:30:36;101328.28;;;11.34;55.17
818;BME280;391;51.052;6.954;2023-04-10T07:32:41;101320.66;;;11.40;55.02
818;BME280;391;51.052;6.954;2023-04-10T07:34:44;101323.31;;;11.42;54.31
818;BME280;391;51.052;6.954;2023-04-10T07:36:48;101314.44;;;11.37;53.35
818;BME280;391;51.052;6.954;2023-04-10T07:38:52;101322.56;;;11.46;52.91
818;BME280;391;51.052;6.954;2023-04-10T07:40:56;101323.78;;;11.55;52.52
818;BME280;391;51.052;6.954;2023-04-10T07:43:00;101318.44;;;11.52;53.08
818;BME280;391;51.052;6.954;2023-04-10T07:45:04;101322.22;;;11.60;53.67
818;BME280;391;51.052;6.954;2023-04-10T07:47:07;101309.28;;;11.63;52.78
818;BME280;391;51.052;6.954;2023-04-10T07:49:12;101319.72;;;11.63;52.66
818;BME280;391;51.052;6.954;2023-04-10T07:51:15;101311.78;;;11.60;51.97
818;BME280;391;51.052;6.954;2023-04-10T07:53:19;101306.25;;;11.51;51.63
818;BME280;391;51.052;6.954;2023-04-10T07:55:22;101300.03;;;11.48;51.62
818;BME280;391;51.052;6.954;2023-04-10T07:57:26;101301.78;;;11.49;51.45
818;BME280;391;51.052;6.954;2023-04-10T07:59:29;101296.72;;;11.53;52.02
818;BME280;391;51.052;6.954;2023-04-10T08:01:33;101292.59;;;11.60;51.81
818;BME280;391;51.052;6.954;2023-04-10T08:03:37;101294.97;;;11.78;51.42
818;BME280;391;51.052;6.954;2023-04-10T08:05:43;101288.78;;;11.74;51.15
818;BME280;391;51.052;6.954;2023-04-10T08:07:46;101278.56;;;11.82;51.60
818;BME280;391;51.052;6.954;2023-04-10T08:09:49;101285.59;;;11.84;51.39
818;BME280;391;51.052;6.954;2023-04-10T08:11:53;101299.00;;;11.93;51.60
818;BME280;391;51.052;6.954;2023-04-10T08:13:58;101293.69;;;11.92;51.56
818;BME280;391;51.052;6.954;2023-04-10T08:16:03;101293.53;;;12.14;50.92
818;BME280;391;51.052;6.954;2023-04-10T08:18:07;101285.06;;;12.23;50.55
818;BME280;391;51.052;6.954;2023-04-10T08:20:11;101278.94;;;12.20;50.71
818;BME280;391;51.052;6.954;2023-04-10T08:22:16;101282.00;;;12.36;50.85
818;BME280;391;51.052;6.954;2023-04-10T08:24:19;101276.31;;;12.49;49.88
818;BME280;391;51.052;6.954;2023-04-10T08:26:24;101269.44;;;12.52;49.80
818;BME280;391;51.052;6.954;2023-04-10T08:28:28;101269.34;;;12.49;49.68
818;BME280;391;51.052;6.954;2023-04-10T08:30:33;101266.00;;;12.53;49.93
818;BME280;391;51.052;6.954;2023-04-10T08:32:37;101256.75;;;12.66;49.27
818;BME280;391;51.052;6.954;2023-04-10T08:34:41;101235.50;;;12.54;49.06
818;BME280;391;51.052;6.954;2023-04-10T08:36:44;101263.75;;;12.67;48.89
818;BME280;391;51.052;6.954;2023-04-10T08:38:49;101263.88;;;12.71;47.85
818;BME280;391;51.052;6.954;2023-04-10T08:40:52;101265.41;;;12.63;47.99
818;BME280;391;51.052;6.954;2023-04-10T08:42:56;101252.69;;;12.76;48.25
818;BME280;391;51.052;6.954;2023-04-10T08:44:59;101261.78;;;12.90;47.49
818;BME280;391;51.052;6.954;2023-04-10T08:47:04;101253.75;;;12.84;48.25
818;BME280;391;51.052;6.954;2023-04-10T08:49:09;101246.09;;;12.90;47.85
818;BME280;391;51.052;6.954;2023-04-10T08:51:18;101247.78;;;12.88;47.79
818;BME280;391;51.052;6.954;2023-04-10T08:53:30;101242.56;;;12.89;48.01
818;BME280;391;51.052;6.954;2023-04-10T08:55:35;101244.75;;;13.04;47.67
818;BME280;391;51.052;6.954;2023-04-10T08:57:39;101235.66;;;13.22;48.16
818;BME280;391;51.052;6.954;2023-04-10T08:59:50;101222.84;;;13.33;47.80
818;BME280;391;51.052;6.954;2023-04-10T09:01:53;101220.34;;;13.38;46.82
818;BME280;391;51.052;6.954;2023-04-10T09:03:57;101218.66;;;13.40;46.02
818;BME280;391;51.052;6.954;2023-04-10T09:06:02;101210.88;;;13.43;45.35
818;BME280;391;51.052;6.954;2023-04-10T09:08:07;101215.31;;;13.45;46.79
818;BME280;391;51.052;6.954;2023-04-10T09:10:11;101221.91;;;13.65;46.79
818;BME280;391;51.052;6.954;2023-04-10T09:12:16;101215.84;;;13.68;45.24
818;BME280;391;51.052;6.954;2023-04-10T09:14:20;101209.38;;;13.52;44.84
818;BME280;391;51.052;6.954;2023-04-10T09:16:27;101200.88;;;13.62;45.61
818;BME280;391;51.052;6.954;2023-04-10T09:18:42;101206.34;;;13.71;45.26
818;BME280;391;51.052;6.954;2023-04-10T09:20:46;101205.72;;;13.83;44.09
818;BME280;391;51.052;6.954;2023-04-10T09:22:52;101196.00;;;13.79;44.04
818;BME280;391;51.052;6.954;2023-04-10T09:24:57;101211.25;;;13.95;43.69
818;BME280;391;51.052;6.954;2023-04-10T09:27:01;101196.66;;;14.08;43.84
818;BME280;391;51.052;6.954;2023-04-10T09:29:06;101213.41;;;14.13;41.99
818;BME280;391;51.052;6.954;2023-04-10T09:31:27;101211.81;;;14.19;41.76
818;BME280;391;51.052;6.954;2023-04-10T09:33:31;101200.19;;;14.08;42.39
818;BME280;391;51.052;6.954;2023-04-10T09:35:36;101204.66;;;14.12;42.39
818;BME280;391;51.052;6.954;2023-04-10T09:37:41;101199.56;;;14.20;42.53
818;BME280;391;51.052;6.954;2023-04-10T09:39:46;101219.81;;;14.27;41.20
818;BME280;391;51.052;6.954;2023-04-10T09:41:50;101216.31;;;14.26;41.71
818;BME280;391;51.052;6.954;2023-04-10T09:44:06;101213.44;;;14.14;41.23
818;BME280;391;51.052;6.954;2023-04-10T09:46:10;101211.28;;;14.34;40.52
818;BME280;391;51.052;6.954;2023-04-10T09:48:14;101204.06;;;14.25;40.78
818;BME280;391;51.052;6.954;2023-04-10T09:50:17;101202.50;;;14.34;41.29
818;BME280;391;51.052;6.954;2023-04-10T09:52:40;101189.63;;;14.44;40.37
818;BME280;391;51.052;6.954;2023-04-10T09:54:44;101192.19;;;14.41;40.24
818;BME280;391;51.052;6.954;2023-04-10T09:56:47;101185.28;;;14.46;39.69
818;BME280;391;51.052;6.954;2023-04-10T09:58:52;101180.25;;;14.58;40.50
818;BME280;391;51.052;6.954;2023-04-10T10:00:59;101178.66;;;14.65;40.08
818;BME280;391;51.052;6.954;2023-04-10T10:03:06;101175.50;;;14.82;40.64
818;BME280;391;51.052;6.954;2023-04-10T10:05:10;101169.31;;;14.79;40.44
818;BME280;391;51.052;6.954;2023-04-10T10:07:14;101178.03;;;14.78;39.36
818;BME280;391;51.052;6.954;2023-04-10T10:09:18;101171.78;;;14.71;39.50
818;BME280;391;51.052;6.954;2023-04-10T10:11:23;101160.59;;;14.81;39.52
818;BME280;391;51.052;6.954;2023-04-10T10:13:30;101159.72;;;14.81;39.89
818;BME280;391;51.052;6.954;2023-04-10T10:15:39;101126.69;;;14.94;40.18
818;BME280;391;51.052;6.954;2023-04-10T10:17:51;101169.19;;;15.21;40.17
818;BME280;391;51.052;6.954;2023-04-10T10:20:01;101151.41;;;15.05;38.57
818;BME280;391;51.052;6.954;2023-04-10T10:22:06;101146.97;;;15.02;39.23
818;BME280;391;51.052;6.954;2023-04-10T10:24:12;101124.84;;;14.87;38.48
818;BME280;391;51.052;6.954;2023-04-10T10:26:18;101148.16;;;15.21;39.20
818;BME280;391;51.052;6.954;2023-04-10T10:28:23;101134.34;;;15.31;38.95
818;BME280;391;51.052;6.954;2023-04-10T10:30:28;101131.81;;;15.38;39.00
818;BME280;391;51.052;6.954;2023-04-10T10:32:33;101138.75;;;15.33;38.81
818;BME280;391;51.052;6.954;2023-04-10T10:34:38;101126.59;;;15.42;38.67
818;BME280;391;51.052;6.954;2023-04-10T10:36:42;101108.28;;;15.46;38.66
818;BME280;391;51.052;6.954;2023-04-10T10:38:52;101115.47;;;15.56;37.67
818;BME280;391;51.052;6.954;2023-04-10T10:41:01;101097.88;;;15.51;37.83
818;BME280;391;51.052;6.954;2023-04-10T10:43:12;101097.25;;;15.68;37.15
818;BME280;391;51.052;6.954;2023-04-10T10:45:20;101100.72;;;15.66;37.42
818;BME280;391;51.052;6.954;2023-04-10T10:47:27;101079.88;;;15.81;38.18
818;BME280;391;51.052;6.954;2023-04-10T10:49:53;101073.97;;;15.97;37.46
818;BME280;391;51.052;6.954;2023-04-10T10:51:57;101075.00;;;16.10;36.93
818;BME280;391;51.052;6.954;2023-04-10T10:54:00;101080.22;;;16.07;37.03
818;BME280;391;51.052;6.954;2023-04-10T10:56:32;101061.63;;;15.93;37.08
818;BME280;391;51.052;6.954;2023-04-10T10:58:45;101052.84;;;15.93;36.78
818;BME280;391;51.052;6.954;2023-04-10T11:01:16;101049.22;;;15.81;36.46
818;BME280;391;51.052;6.954;2023-04-10T11:03:26;101047.41;;;15.77;36.65
818;BME280;391;51.052;6.954;2023-04-10T11:05:50;101037.88;;;15.87;36.13
818;BME280;391;51.052;6.954;2023-04-10T11:08:07;101030.97;;;15.92;36.48
818;BME280;391;51.052;6.954;2023-04-10T11:10:11;101032.78;;;15.99;36.25
818;BME280;391;51.052;6.954;2023-04-10T11:12:15;101027.47;;;15.96;36.49
818;BME280;391;51.052;6.954;2023-04-10T11:14:19;101019.72;;;16.07;36.08
818;BME280;391;51.052;6.954;2023-04-10T11:16:40;101014.53;;;16.16;36.18
818;BME280;391;51.052;6.954;2023-04-10T11:19:01;101022.69;;;16.38;36.41
818;BME280;391;51.052;6.954;2023-04-10T11:21:19;101008.78;;;16.52;35.50
818;BME280;391;51.052;6.954;2023-04-10T11:23:23;100986.69;;;16.36;34.51
818;BME280;391;51.052;6.954;2023-04-10T11:25:45;101006.97;;;16.48;35.32
818;BME280;391;51.052;6.954;2023-04-10T11:27:50;101014.69;;;16.31;35.46
818;BME280;391;51.052;6.954;2023-04-10T11:29:54;100998.94;;;16.34;35.52
818;BME280;391;51.052;6.954;2023-04-10T11:32:00;100989.94;;;16.08;35.05
818;BME280;391;51.052;6.954;2023-04-10T11:34:05;100970.53;;;16.00;35.48
818;BME280;391;51.052;6.954;2023-04-10T11:36:13;101001.47;;;16.25;35.54
818;BME280;391;51.052;6.954;2023-04-10T11:38:20;100979.50;;;16.17;34.92
818;BME280;391;51.052;6.954;2023-04-10T11:40:23;100991.03;;;16.32;35.28
818;BME280;391;51.052;6.954;2023-04-10T11:42:27;100981.34;;;16.27;36.40
818;BME280;391;51.052;6.954;2023-04-10T11:44:32;100994.47;;;16.24;35.48
818;BME280;391;51.052;6.954;2023-04-10T11:46:37;100981.28;;;16.22;35.16
818;BME280;391;51.052;6.954;2023-04-10T11:48:41;100968.06;;;16.13;35.42
818;BME280;391;51.052;6.954;2023-04-10T11:50:45;100979.53;;;16.20;35.71
818;BME280;391;51.052;6.954;2023-04-10T11:52:48;100969.94;;;16.26;35.74